createdAt,value
2019-02-06T00:02:20.591Z,97407.54
2019-02-06T00:04:47.649Z,97392.36
2019-02-06T00:07:14.686Z,97398.08
2019-02-06T00:09:41.738Z,97391.27
2019-02-06T00:12:08.780Z,97398.42
2019-02-06T00:14:36.122Z,97401.18
2019-02-06T00:17:03.340Z,97397.31
2019-02-06T00:19:30.358Z,97396.28
2019-02-06T00:21:57.391Z,97404.42
2019-02-06T00:24:24.462Z,97390.81
2019-02-06T00:26:51.509Z,97389.97
2019-02-06T00:29:18.561Z,97389.59
2019-02-06T00:31:45.574Z,97398.30
2019-02-06T00:34:12.803Z,97397.67
2019-02-06T00:36:39.823Z,97395.39
2019-02-06T00:39:08.307Z,97396.70
2019-02-06T00:41:35.336Z,97401.73
2019-02-06T00:44:02.366Z,97395.33
2019-02-06T00:46:29.504Z,97400.13
2019-02-06T00:48:56.567Z,97393.43
2019-02-06T00:51:23.602Z,97397.25
2019-02-06T00:53:50.647Z,97390.45
2019-02-06T00:56:17.696Z,97396.19
2019-02-06T00:58:44.725Z,97407.34
2019-02-06T01:01:11.865Z,97399.22
2019-02-06T01:03:38.898Z,97400.66
2019-02-06T01:06:06.048Z,97407.24
2019-02-06T01:08:33.087Z,97406.69
2019-02-06T01:11:00.432Z,97401.08
2019-02-06T01:13:27.470Z,97398.93
2019-02-06T01:15:54.517Z,97396.90
2019-02-06T01:18:21.554Z,97392.36
2019-02-06T01:20:48.605Z,97400.12
2019-02-06T01:23:16.506Z,97405.13
2019-02-06T01:25:43.623Z,97395.94
2019-02-06T01:28:10.672Z,97395.82
2019-02-06T01:30:45.519Z,97393.80
2019-02-06T01:33:12.821Z,97398.69
2019-02-06T01:35:49.663Z,97401.91
2019-02-06T01:38:08.796Z,97401.80
2019-02-06T01:40:35.831Z,97403.83
2019-02-06T01:43:02.872Z,97398.22
2019-02-06T01:45:29.909Z,97407.44
2019-02-06T01:47:57.269Z,97399.09
2019-02-06T01:50:24.314Z,97401.83
2019-02-06T01:52:51.368Z,97403.14
2019-02-06T01:55:18.392Z,97408.63
2019-02-06T01:57:45.443Z,97405.77
2019-02-06T02:00:14.753Z,97400.16
2019-02-06T02:02:41.797Z,97398.38
2019-02-06T02:05:09.048Z,97394.19
2019-02-06T02:07:36.072Z,97392.08
2019-02-06T02:10:04.286Z,97385.27
2019-02-06T02:12:31.427Z,97380.73
2019-02-06T02:14:58.447Z,97381.94
2019-02-06T02:17:25.474Z,97381.09
2019-02-06T02:19:52.535Z,97378.95
2019-02-06T02:22:19.574Z,97372.75
2019-02-06T02:24:46.819Z,97380.14
2019-02-06T02:27:13.870Z,97378.35
2019-02-06T02:29:40.921Z,97385.27
2019-02-06T02:32:07.951Z,97381.81
2019-02-06T02:34:34.968Z,97384.47
2019-02-06T02:37:01.980Z,97382.67
2019-02-06T02:39:29.037Z,97389.11
2019-02-06T02:41:56.408Z,97382.08
2019-02-06T02:44:23.452Z,97377.19
2019-02-06T02:46:50.510Z,97372.30
2019-02-06T02:49:17.622Z,97376.23
2019-02-06T02:51:44.690Z,97367.28
2019-02-06T02:54:11.722Z,97370.63
2019-02-06T02:56:38.759Z,97372.53
2019-02-06T02:59:05.783Z,97371.58
2019-02-06T03:01:44.089Z,97369.30
2019-02-06T03:04:31.907Z,97365.75
2019-02-06T03:06:58.935Z,97369.69
2019-02-06T03:09:25.976Z,97370.87
2019-02-06T03:11:53.400Z,97370.16
2019-02-06T03:14:20.454Z,97372.55
2019-02-06T03:16:47.505Z,97363.72
2019-02-06T03:19:14.515Z,97355.85
2019-02-06T03:21:41.538Z,97358.59
2019-02-06T03:24:08.568Z,97355.02
2019-02-06T03:26:35.602Z,97354.89
2019-02-06T03:29:02.950Z,97352.86
2019-02-06T03:31:30.303Z,97360.37
2019-02-06T03:33:57.344Z,97364.31
2019-02-06T03:36:24.383Z,97360.13
2019-02-06T03:38:52.361Z,97352.14
2019-02-06T03:41:19.406Z,97351.69
2019-02-06T03:43:46.422Z,97348.91
2019-02-06T03:46:13.475Z,97354.89
2019-02-06T03:48:40.802Z,97356.08
2019-02-06T03:51:07.835Z,97353.83
2019-02-06T03:53:34.888Z,97355.12
2019-02-06T03:56:01.937Z,97352.62
2019-02-06T03:58:28.993Z,97348.33
2019-02-06T04:00:56.033Z,97349.99
2019-02-06T04:03:23.061Z,97353.36
2019-02-06T04:05:50.097Z,97355.98
2019-02-06T04:08:17.500Z,97361.59
2019-02-06T04:10:44.531Z,97358.70
2019-02-06T04:13:11.569Z,97359.41
2019-02-06T04:15:38.622Z,97356.34
2019-02-06T04:18:05.663Z,97359.91
2019-02-06T04:20:32.741Z,97359.55
2019-02-06T04:22:59.781Z,97361.80
2019-02-06T04:25:26.838Z,97365.63
2019-02-06T04:27:53.872Z,97362.16
2019-02-06T04:30:20.889Z,97359.42
2019-02-06T04:32:48.039Z,97360.95
2019-02-06T04:35:15.167Z,97354.05
2019-02-06T04:37:42.181Z,97355.00
2019-02-06T04:40:11.913Z,97351.19
2019-02-06T04:42:38.933Z,97357.27
2019-02-06T04:45:07.002Z,97362.63
2019-02-06T04:47:34.043Z,97362.63
2019-02-06T04:50:01.114Z,97359.53
2019-02-06T04:52:28.111Z,97354.28
2019-02-06T04:54:55.162Z,97349.63
2019-02-06T04:57:22.199Z,97354.28
2019-02-06T04:59:49.238Z,97362.75
2019-02-06T05:02:16.280Z,97357.50
2019-02-06T05:04:43.497Z,97359.17
2019-02-06T05:07:18.602Z,97361.53
2019-02-06T05:09:39.500Z,97364.17
2019-02-06T05:12:09.525Z,97364.53
2019-02-06T05:14:35.498Z,97361.64
2019-02-06T05:17:02.571Z,97365.80
2019-02-06T05:19:29.572Z,97361.78
2019-02-06T05:21:56.921Z,97364.53
2019-02-06T05:24:23.949Z,97360.95
2019-02-06T05:26:51.085Z,97357.35
2019-02-06T05:29:18.144Z,97356.98
2019-02-06T05:31:45.215Z,97354.98
2019-02-06T05:34:12.256Z,97344.28
2019-02-06T05:36:39.326Z,97344.19
2019-02-06T05:39:07.346Z,97346.38
2019-02-06T05:41:34.690Z,97350.09
2019-02-06T05:44:01.753Z,97356.36
2019-02-06T05:46:28.782Z,97356.75
2019-02-06T05:48:55.820Z,97364.77
2019-02-06T05:51:22.870Z,97368.70
2019-02-06T05:53:49.917Z,97376.37
2019-02-06T05:56:16.992Z,97372.42
2019-02-06T05:58:44.031Z,97371.95
2019-02-06T06:01:11.357Z,97382.20
2019-02-06T06:03:38.412Z,97382.05
2019-02-06T06:06:05.455Z,97373.80
2019-02-06T06:08:32.499Z,97378.46
2019-02-06T06:10:59.531Z,97383.00
2019-02-06T06:13:26.576Z,97384.06
2019-02-06T06:15:53.639Z,97375.48
2019-02-06T06:18:21.972Z,97376.91
2019-02-06T06:20:49.395Z,97377.52
2019-02-06T06:23:16.778Z,97373.23
2019-02-06T06:25:43.949Z,97372.52
2019-02-06T06:28:10.979Z,97372.63
2019-02-06T06:30:38.048Z,97373.46
2019-02-06T06:33:05.079Z,97379.77
2019-02-06T06:35:32.115Z,97375.72
2019-02-06T06:38:02.881Z,97373.46
2019-02-06T06:40:28.136Z,97367.77
2019-02-06T06:42:55.171Z,97372.53
2019-02-06T06:45:22.742Z,97372.19
2019-02-06T06:47:50.006Z,97368.94
2019-02-06T06:50:18.769Z,97373.95
2019-02-06T06:52:45.822Z,97368.23
2019-02-06T06:55:13.514Z,97365.86
2019-02-06T06:57:40.963Z,97365.15
2019-02-06T07:00:12.268Z,97365.75
2019-02-06T07:02:39.333Z,97363.25
2019-02-06T07:05:06.814Z,97363.48
2019-02-06T07:07:33.869Z,97360.27
2019-02-06T07:10:00.937Z,97360.37
2019-02-06T07:12:27.959Z,97359.77
2019-02-06T07:14:55.312Z,97359.41
2019-02-06T07:17:22.349Z,97360.96
2019-02-06T07:19:49.397Z,97362.27
2019-02-06T07:22:16.454Z,97363.34
2019-02-06T07:24:43.508Z,97368.12
2019-02-06T07:27:10.605Z,97362.54
2019-02-06T07:29:37.654Z,97356.17
2019-02-06T07:32:04.695Z,97368.42
2019-02-06T07:34:31.937Z,97357.34
2019-02-06T07:36:58.982Z,97359.06
2019-02-06T07:39:26.015Z,97351.78
2019-02-06T07:41:53.088Z,97345.55
2019-02-06T07:44:20.126Z,97352.36
2019-02-06T07:46:47.191Z,97356.45
2019-02-06T07:49:14.233Z,97362.84
2019-02-06T07:51:41.292Z,97364.99
2019-02-06T07:54:08.328Z,97374.91
2019-02-06T07:56:35.391Z,97368.88
2019-02-06T07:59:02.444Z,97376.47
2019-02-06T08:01:29.470Z,97376.25
2019-02-06T08:03:56.502Z,97373.92
2019-02-06T08:06:23.539Z,97376.07
2019-02-06T08:08:50.574Z,97375.41
2019-02-06T08:11:17.605Z,97369.69
2019-02-06T08:13:44.662Z,97372.57
2019-02-06T08:16:11.701Z,97374.95
2019-02-06T08:18:38.843Z,97375.06
2019-02-06T08:21:05.896Z,97378.40
2019-02-06T08:23:32.935Z,97377.92
2019-02-06T08:25:59.978Z,97383.30
2019-02-06T08:28:26.995Z,97383.41
2019-02-06T08:30:54.453Z,97383.05
2019-02-06T08:33:21.483Z,97380.66
2019-02-06T08:35:48.521Z,97374.73
2019-02-06T08:38:15.551Z,97373.05
2019-02-06T08:40:42.609Z,97378.43
2019-02-06T08:43:09.747Z,97378.30
2019-02-06T08:45:36.791Z,97378.47
2019-02-06T08:48:04.011Z,97372.81
2019-02-06T08:50:31.190Z,97373.62
2019-02-06T08:52:58.218Z,97368.55
2019-02-06T08:55:26.729Z,97370.02
2019-02-06T08:57:53.991Z,97371.34
2019-02-06T09:00:26.296Z,97370.70
2019-02-06T09:02:53.439Z,97375.34
2019-02-06T09:05:20.508Z,97369.61
2019-02-06T09:07:47.843Z,97370.19
2019-02-06T09:10:16.385Z,97364.86
2019-02-06T09:12:43.441Z,97363.53
2019-02-06T09:15:11.209Z,97371.55
2019-02-06T09:17:38.241Z,97364.50
2019-02-06T09:20:08.612Z,97360.50
2019-02-06T09:22:35.653Z,97357.56
2019-02-06T09:25:03.201Z,97346.28
2019-02-06T09:27:30.266Z,97344.78
2019-02-06T09:29:57.326Z,97349.70
2019-02-06T09:32:24.378Z,97349.13
2019-02-06T09:34:51.434Z,97353.00
2019-02-06T09:37:18.462Z,97347.25
2019-02-06T09:39:45.537Z,97344.51
2019-02-06T09:42:12.606Z,97347.27
2019-02-06T09:44:39.778Z,97348.80
2019-02-06T09:47:06.809Z,97342.97
2019-02-06T09:49:33.869Z,97350.55
2019-02-06T09:52:00.907Z,97355.83
2019-02-06T09:54:27.967Z,97357.15
2019-02-06T09:56:55.011Z,97355.66
2019-02-06T09:59:22.064Z,97349.16
2019-02-06T10:01:49.109Z,97348.75
2019-02-06T10:04:16.170Z,97346.61
2019-02-06T10:06:43.194Z,97344.99
2019-02-06T10:09:10.253Z,97347.78
2019-02-06T10:11:37.304Z,97352.43
2019-02-06T10:14:04.356Z,97346.40
2019-02-06T10:16:31.408Z,97349.45
2019-02-06T10:18:58.440Z,97348.95
2019-02-06T10:21:25.699Z,97340.84
2019-02-06T10:23:52.790Z,97338.72
2019-02-06T10:26:19.881Z,97344.91
2019-02-06T10:28:46.939Z,97344.61
2019-02-06T10:31:14.005Z,97337.27
2019-02-06T10:33:41.068Z,97332.56
2019-02-06T10:36:08.132Z,97333.47
2019-02-06T10:38:35.180Z,97329.80
2019-02-06T10:41:04.564Z,97324.61
2019-02-06T10:43:35.064Z,97325.20
2019-02-06T10:46:00.366Z,97325.65
2019-02-06T10:48:27.420Z,97317.64
2019-02-06T10:50:54.474Z,97316.22
2019-02-06T10:53:21.644Z,97312.67
2019-02-06T10:55:48.686Z,97312.05
2019-02-06T10:58:16.039Z,97307.73
2019-02-06T11:00:46.259Z,97307.89
2019-02-06T11:03:13.322Z,97303.23
2019-02-06T11:05:40.567Z,97307.20
2019-02-06T11:08:07.607Z,97300.66
2019-02-06T11:10:34.692Z,97296.45
2019-02-06T11:13:02.052Z,97300.72
2019-02-06T11:15:29.627Z,97292.94
2019-02-06T11:17:56.765Z,97294.67
2019-02-06T11:20:24.320Z,97283.47
2019-02-06T11:22:51.367Z,97283.05
2019-02-06T11:25:18.426Z,97274.92
2019-02-06T11:27:45.481Z,97269.66
2019-02-06T11:30:15.371Z,97273.74
2019-02-06T11:32:42.542Z,97268.45
2019-02-06T11:35:09.955Z,97262.33
2019-02-06T11:37:37.004Z,97264.94
2019-02-06T11:40:06.147Z,97255.45
2019-02-06T11:42:33.189Z,97253.11
2019-02-06T11:45:00.239Z,97252.23
2019-02-06T11:47:27.323Z,97255.92
2019-02-06T11:49:56.578Z,97252.15
2019-02-06T11:52:23.876Z,97248.13
2019-02-06T11:54:50.955Z,97240.20
2019-02-06T11:57:18.043Z,97238.09
2019-02-06T11:59:45.110Z,97237.53
2019-02-06T12:02:13.215Z,97228.34
2019-02-06T12:04:40.425Z,97234.59
2019-02-06T12:07:07.495Z,97234.59
2019-02-06T12:09:34.846Z,97223.81
2019-02-06T12:12:01.916Z,97230.44
2019-02-06T12:14:29.007Z,97223.13
2019-02-06T12:16:56.064Z,97223.13
2019-02-06T12:19:23.143Z,97212.86
2019-02-06T12:21:50.192Z,97199.11
2019-02-06T12:24:17.271Z,97205.48
2019-02-06T12:26:44.336Z,97184.78
2019-02-06T12:29:11.929Z,97184.78
2019-02-06T12:31:39.026Z,97186.55
2019-02-06T12:34:06.062Z,97189.05
2019-02-06T12:36:33.108Z,97178.05
2019-02-06T12:39:00.174Z,97182.56
2019-02-06T12:41:27.253Z,97178.47
2019-02-06T12:43:54.310Z,97171.16
2019-02-06T12:46:21.360Z,97164.17
2019-02-06T12:48:48.428Z,97161.83
2019-02-06T12:51:15.498Z,97159.08
2019-02-06T12:53:42.532Z,97160.35
2019-02-06T12:56:09.612Z,97154.37
2019-02-06T12:58:36.700Z,97142.41
2019-02-06T13:01:04.506Z,97144.52
2019-02-06T13:03:31.576Z,97140.13
2019-02-06T13:05:58.614Z,97135.76
2019-02-06T13:08:25.670Z,97133.66
2019-02-06T13:10:52.751Z,97133.02
2019-02-06T13:13:19.838Z,97125.91
2019-02-06T13:15:47.561Z,97123.77
2019-02-06T13:18:14.689Z,97126.94
2019-02-06T13:20:41.751Z,97120.66
2019-02-06T13:23:09.679Z,97123.67
2019-02-06T13:25:36.768Z,97116.20
2019-02-06T13:28:04.401Z,97115.31
2019-02-06T13:30:33.773Z,97116.80
2019-02-06T13:33:00.873Z,97111.53
2019-02-06T13:35:27.963Z,97111.53
2019-02-06T13:37:55.023Z,97105.88
2019-02-06T13:40:22.794Z,97109.70
2019-02-06T13:42:49.871Z,97109.70
2019-02-06T13:45:22.214Z,97104.06
2019-02-06T13:47:49.391Z,97103.18
2019-02-06T13:50:22.121Z,97100.33
2019-02-06T13:52:45.761Z,97087.78
2019-02-06T13:55:14.586Z,97090.23
2019-02-06T13:57:41.711Z,97088.58
2019-02-06T14:00:14.619Z,97089.59
2019-02-06T14:02:42.117Z,97091.75
2019-02-06T14:05:09.555Z,97085.93
2019-02-06T14:07:36.629Z,97084.63
2019-02-06T14:10:04.477Z,97085.67
2019-02-06T14:12:31.540Z,97070.94
2019-02-06T14:14:58.611Z,97074.73
2019-02-06T14:17:25.690Z,97069.41
2019-02-06T14:19:53.164Z,97070.91
2019-02-06T14:22:20.260Z,97069.95
2019-02-06T14:25:05.696Z,97060.54
2019-02-06T14:28:00.668Z,97060.38
2019-02-06T14:30:48.361Z,97055.36
2019-02-06T14:33:46.944Z,97056.36
2019-02-06T14:36:50.465Z,97053.54
2019-02-06T14:39:30.711Z,97053.88
2019-02-06T14:42:32.224Z,97049.55
2019-02-06T14:45:28.304Z,97048.00
2019-02-06T14:48:35.076Z,97039.64
2019-02-06T14:51:11.739Z,97039.64
2019-02-06T14:54:20.645Z,97029.95
2019-02-06T14:57:15.996Z,97029.95
2019-02-06T15:00:26.938Z,97037.48
2019-02-06T15:03:25.540Z,97032.34
2019-02-06T15:06:34.752Z,97031.44
2019-02-06T15:09:35.946Z,97029.25
2019-02-06T15:12:44.961Z,97004.28
2019-02-06T15:16:05.701Z,97007.11
2019-02-06T15:18:48.545Z,97010.20
2019-02-06T15:22:04.820Z,97008.28
2019-02-06T15:25:01.961Z,96996.95
2019-02-06T15:28:03.030Z,96993.30
2019-02-06T15:31:23.901Z,96999.88
2019-02-06T15:34:28.010Z,96995.97
2019-02-06T15:37:36.073Z,96997.71
2019-02-06T15:40:36.851Z,96993.38
2019-02-06T15:43:19.485Z,96995.86
2019-02-06T15:46:16.885Z,96985.96
2019-02-06T15:49:28.777Z,96978.82
2019-02-06T15:52:18.978Z,96987.30
2019-02-06T15:55:36.915Z,96967.25
2019-02-06T15:58:44.731Z,96978.34
2019-02-06T16:01:34.643Z,96975.56
2019-02-06T16:04:41.890Z,96967.59
2019-02-06T16:07:35.801Z,96973.84
2019-02-06T16:10:48.033Z,96967.83
2019-02-06T16:13:39.264Z,96971.88
2019-02-06T16:16:53.892Z,96972.75
2019-02-06T16:20:05.969Z,96961.16
2019-02-06T16:23:04.407Z,96956.32
2019-02-06T16:26:07.191Z,96954.31
2019-02-06T16:28:48.632Z,96954.61
2019-02-06T16:31:56.399Z,96963.34
2019-02-06T16:34:41.860Z,96961.48
2019-02-06T16:37:28.620Z,96964.59
2019-02-06T16:40:29.893Z,96962.88
2019-02-06T16:43:33.028Z,96957.74
2019-02-06T16:46:42.489Z,96960.37
2019-02-06T16:49:52.957Z,96957.83
2019-02-06T16:53:03.469Z,96953.94
2019-02-06T16:56:16.002Z,96958.06
2019-02-06T16:59:15.370Z,96953.60
2019-02-06T17:02:18.740Z,96955.20
2019-02-06T17:05:30.784Z,96953.45
2019-02-06T17:08:16.354Z,96948.81
2019-02-06T17:10:58.680Z,96944.12
2019-02-06T17:14:00.137Z,96945.45
2019-02-06T17:17:14.286Z,96940.88
2019-02-06T17:20:34.684Z,96945.66
2019-02-06T17:23:45.525Z,96933.81
2019-02-06T17:26:33.142Z,96924.11
2019-02-06T17:29:52.005Z,96930.66
2019-02-06T17:33:12.946Z,96926.16
2019-02-06T17:36:10.806Z,96918.12
2019-02-06T17:39:09.964Z,96914.11
2019-02-06T17:42:00.381Z,96926.53
2019-02-06T17:44:50.684Z,96929.99
2019-02-06T17:47:55.934Z,96920.15
2019-02-06T17:51:08.416Z,96916.83
2019-02-06T17:53:38.500Z,96919.95
2019-02-06T17:56:06.527Z,96919.80
2019-02-06T17:58:54.262Z,96919.26
2019-02-06T18:04:27.969Z,96928.58
2019-02-06T18:06:55.613Z,96925.34
2019-02-06T18:09:22.997Z,96918.20
2019-02-06T18:11:51.531Z,96918.83
2019-02-06T18:17:21.906Z,96911.56
2019-02-06T18:19:49.524Z,96908.90
2019-02-06T19:20:59.234Z,96851.39
2019-02-06T19:23:26.566Z,96845.45
2019-02-06T19:26:21.512Z,96844.69
2019-02-06T19:28:48.741Z,96841.53
2019-02-06T19:31:16.066Z,96838.70
2019-02-06T19:33:44.280Z,96836.07
2019-02-06T19:36:12.646Z,96828.53
2019-02-06T19:42:02.482Z,96820.68
2019-02-06T19:44:32.500Z,96816.35
2019-02-06T19:46:59.921Z,96810.41
2019-02-06T19:49:27.873Z,96812.34
2019-02-06T19:51:56.624Z,96809.72
2019-02-06T19:54:26.032Z,96810.48
2019-02-06T19:56:54.965Z,96804.39
2019-02-06T19:59:22.698Z,96796.50
2019-02-06T20:01:50.388Z,96795.81
2019-02-06T20:04:18.269Z,96792.28
2019-02-06T20:06:57.990Z,96785.81
2019-02-06T20:09:25.749Z,96787.34
2019-02-06T20:11:53.342Z,96786.72
2019-02-06T20:14:21.201Z,96790.10
2019-02-06T20:16:48.594Z,96790.24
2019-02-06T20:19:16.751Z,96787.23
2019-02-06T20:21:46.104Z,96781.14
2019-02-06T20:24:13.539Z,96778.46
2019-02-06T20:26:41.947Z,96778.53
2019-02-06T20:29:09.314Z,96775.89
2019-02-06T20:31:36.940Z,96779.09
2019-02-06T20:34:05.658Z,96773.20
2019-02-06T20:36:33.298Z,96770.84
2019-02-06T20:39:03.115Z,96771.00
2019-02-06T20:41:30.366Z,96762.06
2019-02-06T20:43:57.504Z,96760.14
2019-02-06T20:46:24.837Z,96756.41
2019-02-06T20:48:57.391Z,96749.72
2019-02-06T20:51:24.596Z,96754.70
2019-02-06T20:53:52.002Z,96748.96
2019-02-06T20:56:22.839Z,96742.53
2019-02-06T20:58:52.635Z,96743.16
2019-02-06T21:01:20.149Z,96746.81
2019-02-06T21:03:47.675Z,96747.30
2019-02-06T21:06:14.887Z,96749.17
2019-02-06T21:08:42.073Z,96747.23
2019-02-06T21:11:10.091Z,96740.23
2019-02-06T21:13:37.287Z,96745.08
2019-02-06T21:16:04.790Z,96747.64
2019-02-06T21:18:32.049Z,96738.92
2019-02-06T21:20:59.106Z,96741.48
2019-02-06T21:23:27.000Z,96732.14
2019-02-06T21:25:54.388Z,96732.45
2019-02-06T21:28:21.415Z,96728.23
2019-02-06T21:30:48.591Z,96724.00
2019-02-06T21:33:15.783Z,96715.09
2019-02-06T21:35:43.084Z,96714.27
2019-02-06T21:38:10.157Z,96706.38
2019-02-06T21:40:37.231Z,96706.11
2019-02-06T21:43:04.780Z,96698.45
2019-02-06T21:45:31.857Z,96695.47
2019-02-06T21:47:59.254Z,96694.51
2019-02-06T21:50:46.041Z,96693.89
2019-02-06T21:53:13.064Z,96690.98
2019-02-06T21:55:40.159Z,96687.60
2019-02-06T22:00:53.768Z,96682.64
2019-02-06T22:03:21.093Z,96682.02
2019-02-06T22:05:48.142Z,96684.11
2019-02-06T22:08:15.151Z,96679.39
2019-02-06T22:10:42.244Z,96683.27
2019-02-06T22:13:09.260Z,96682.02
2019-02-06T22:15:36.829Z,96679.95
2019-02-06T22:18:03.811Z,96670.95
2019-02-06T22:20:31.132Z,96673.05
2019-02-06T22:22:58.186Z,96681.20
2019-02-06T22:25:25.183Z,96673.33
2019-02-06T22:27:52.196Z,96670.01
2019-02-06T22:30:21.103Z,96660.95
2019-02-06T22:32:48.099Z,96663.30
2019-02-06T22:35:15.044Z,96664.48
2019-02-06T22:37:42.401Z,96656.95
2019-02-06T22:40:11.697Z,96657.58
2019-02-06T22:42:38.725Z,96652.53
2019-02-06T22:45:07.782Z,96651.48
2019-02-06T22:47:34.767Z,96648.66
2019-02-06T22:50:01.735Z,96646.11
2019-02-06T22:52:28.899Z,96642.87
2019-02-06T22:54:56.186Z,96643.34
2019-02-06T22:57:23.216Z,96639.48
2019-02-06T22:59:50.199Z,96645.00
2019-02-06T23:02:17.273Z,96636.44
2019-02-06T23:04:44.269Z,96644.38
2019-02-06T23:07:11.227Z,96643.48
2019-02-06T23:09:38.467Z,96632.64
2019-02-06T23:12:05.737Z,96630.36
2019-02-06T23:14:33.022Z,96623.18
2019-02-06T23:17:00.464Z,96621.77
2019-02-06T23:19:27.409Z,96619.34
2019-02-06T23:21:54.779Z,96610.78
2019-02-06T23:24:21.813Z,96606.84
2019-02-06T23:26:48.829Z,96609.47
2019-02-06T23:29:16.162Z,96602.63
2019-02-06T23:31:43.203Z,96598.55
2019-02-06T23:34:10.183Z,96595.92
2019-02-06T23:36:37.200Z,96594.75
2019-02-06T23:42:31.749Z,96581.22
2019-02-06T23:44:58.708Z,96582.84
2019-02-06T23:47:25.794Z,96574.83
2019-02-06T23:49:52.790Z,96568.75
2019-02-06T23:52:19.892Z,96567.58
2019-02-06T23:54:46.890Z,96569.65
2019-02-06T23:57:14.154Z,96570.55
2019-02-06T23:59:41.168Z,96569.52
